Weather reports worldwide

Advertisment
Aonach Mor, United Kingdom (3041): temperature & dewpoint: 13.11.2019 18:00:00 - 19.11.2019 18:00:00 (GMT)Aonach Mor, United Kingdom (3041): wind speed & gusts: 13.11.2019 18:00:00 - 19.11.2019 18:00:00 (GMT)Aonach Mor, United Kingdom (3041): wind direction: 13.11.2019 18:00:00 - 19.11.2019 18:00:00 (GMT)
Date & Time tt [°C] td [°C] ff [km/h] ff [kn] fx [km/h] fx [kn] dd
19.11.2019 18:00:00 -1,3 -2,2 55 30 74 40 SSE
19.11.2019 17:00:00 -1,5 -2,1 50 27 70 38 SSE
19.11.2019 16:00:00 -1,6 -2,8 41 22 85 46 S
19.11.2019 15:00:00 -1,8 -3,8 57 31 83 45 S
19.11.2019 14:00:00 -1,7 -3,5 54 29 78 42 S
19.11.2019 13:00:00 -2,1 -3,7 52 28 76 41 S
19.11.2019 12:00:00 -1,6 -3,0 48 26 65 35 S
19.11.2019 11:00:00 -2,1 -3,7 50 27 68 37 S
19.11.2019 10:00:00 -1,8 -3,2 39 21 55 30 SSW
19.11.2019 09:00:00 -2,5 -3,1 22 12 - - SSW
19.11.2019 08:00:00 -2,4 -3,7 31 17 - - S
19.11.2019 07:00:00 -2,2 -2,9 24 13 - - S
19.11.2019 06:00:00 -2,2 -3,8 29 16 - - S
19.11.2019 05:00:00 -2,6 -6,0 28 15 - - S
19.11.2019 04:00:00 -1,4 -11,7 24 13 - - SSE
19.11.2019 03:00:00 -2,7 -11,4 26 14 - - SSE
19.11.2019 02:00:00 -2,4 -13,4 15 8 - - SE
19.11.2019 01:00:00 -3,3 -14,5 13 7 - - SE
19.11.2019 00:00:00 -4,8 -15,2 4 2 - - S
18.11.2019 23:00:00 -4,0 -13,5 15 8 - - SE
18.11.2019 22:00:00 -4,6 -13,3 9 5 - - SE
18.11.2019 21:00:00 -4,8 -12,4 11 6 - - SE
18.11.2019 20:00:00 -5,4 -11,3 16 9 - - ESE
18.11.2019 19:00:00 -6,0 -11,6 - - - - -
18.11.2019 18:00:00 -6,6 -11,3 - - - - -
18.11.2019 17:00:00 -6,8 -10,3 5 3 - - E
18.11.2019 16:00:00 -6,7 -10,5 8 4 - - E
18.11.2019 15:00:00 -5,5 -14,9 11 6 - - ESE
18.11.2019 14:00:00 -4,9 -15,6 - - - - -
18.11.2019 13:00:00 -4,5 -12,6 - - - - -
18.11.2019 12:00:00 -4,8 -9,9 4 2 - - E
18.11.2019 11:00:00 -4,4 -7,5 4 2 - - ENE
18.11.2019 10:00:00 -6,0 -7,0 8 4 - - NE
18.11.2019 09:00:00 -5,8 -6,6 11 6 - - NE
18.11.2019 08:00:00 -5,7 -6,6 - - - - -
18.11.2019 07:00:00 -5,8 -6,5 - - - - -
18.11.2019 06:00:00 -6,2 -6,7 - - - - -
18.11.2019 05:00:00 -5,6 -6,2 - - - - -
18.11.2019 04:00:00 -4,9 -5,4 - - - - -
18.11.2019 03:00:00 -5,3 -5,7 - - - - -
18.11.2019 02:00:00 -5,2 -5,7 5 3 - - NE
18.11.2019 01:00:00 -5,7 -6,1 9 5 - - N
18.11.2019 00:00:00 -5,0 -5,4 5 3 - - NNE
17.11.2019 23:00:00 -6,4 -7,1 0 0 - - N
17.11.2019 22:00:00 -5,4 -5,8 2 1 - - E
17.11.2019 21:00:00 -5,3 -5,7 - - - - -
17.11.2019 20:00:00 -6,0 -6,8 - - - - -
17.11.2019 19:00:00 -4,5 -5,1 - - - - -
17.11.2019 18:00:00 -3,9 -4,2 - - - - -
17.11.2019 17:00:00 -3,2 -3,4 - - - - -
17.11.2019 16:00:00 -2,7 -3,1 - - - - -
17.11.2019 15:00:00 -2,2 -3,0 - - - - -
17.11.2019 14:00:00 -2,0 -2,9 - - - - -
17.11.2019 13:00:00 -2,0 -3,2 8 4 - - N
17.11.2019 12:00:00 -2,0 -2,9 9 5 - - N
17.11.2019 11:00:00 -1,8 -2,1 2 1 - - ENE
17.11.2019 10:00:00 -1,8 -2,1 2 1 - - ENE
17.11.2019 09:00:00 -1,8 -2,0 0 0 - - N
17.11.2019 08:00:00 -2,0 -2,2 2 1 - - SSE
17.11.2019 07:00:00 -2,4 -2,5 2 1 - - SSW
17.11.2019 06:00:00 -3,1 -3,4 2 1 - - WSW
17.11.2019 05:00:00 -3,4 -3,9 4 2 - - SW
17.11.2019 04:00:00 -3,5 -4,1 4 2 - - SW
17.11.2019 03:00:00 -3,3 -3,8 4 2 - - SSW
17.11.2019 02:00:00 -3,1 -3,5 4 2 - - SSW
17.11.2019 01:00:00 -3,4 -3,8 4 2 - - SSW
17.11.2019 00:00:00 -3,2 -3,6 2 1 - - SW
16.11.2019 23:00:00 -3,2 -3,5 2 1 - - SW
16.11.2019 22:00:00 -3,7 -4,2 2 1 - - SW
16.11.2019 21:00:00 -4,3 -4,8 5 3 - - N
16.11.2019 20:00:00 -3,9 -4,4 4 2 - - NNE
16.11.2019 19:00:00 -3,1 -3,5 2 1 - - SSW
16.11.2019 18:00:00 -2,7 -2,9 0 0 - - N
16.11.2019 17:00:00 -2,6 -2,8 2 1 - - SW
16.11.2019 16:00:00 -2,8 -3,2 0 0 - - N
16.11.2019 15:00:00 -2,8 -3,4 2 1 - - SSW
16.11.2019 14:00:00 -3,0 -3,9 2 1 - - SSW
16.11.2019 13:00:00 -2,7 -3,4 2 1 - - SSW
16.11.2019 12:00:00 -2,8 -3,3 2 1 - - SE
16.11.2019 11:00:00 -2,8 -2,9 2 1 - - SW
16.11.2019 10:00:00 -2,7 -3,0 5 3 - - E
16.11.2019 09:00:00 -3,6 -4,1 2 1 - - N
16.11.2019 08:00:00 -3,4 -4,0 4 2 - - NE
16.11.2019 07:00:00 -3,3 -3,8 4 2 - - NE
16.11.2019 06:00:00 -3,6 -4,1 4 2 - - E
16.11.2019 05:00:00 -3,6 -4,1 4 2 - - ENE
16.11.2019 04:00:00 -3,2 -3,9 4 2 - - ENE
16.11.2019 03:00:00 -3,3 -3,7 4 2 - - E
16.11.2019 02:00:00 -3,5 -4,3 4 2 - - S
16.11.2019 01:00:00 -2,7 -3,1 8 4 - - ESE
16.11.2019 00:00:00 -2,8 -3,3 2 1 - - SW
15.11.2019 23:00:00 -2,5 -2,8 - - - - -
15.11.2019 22:00:00 -2,6 -2,9 - - - - -
15.11.2019 21:00:00 -3,2 -3,6 - - - - -
15.11.2019 20:00:00 -3,3 -3,8 - - - - -
15.11.2019 19:00:00 -2,8 -3,1 - - - - -
15.11.2019 18:00:00 -2,8 -3,2 8 4 - - E
15.11.2019 17:00:00 -2,8 -3,1 - - - - -
15.11.2019 16:00:00 -2,5 -2,8 5 3 - - ESE
15.11.2019 15:00:00 -2,2 -2,5 8 4 - - ENE
15.11.2019 14:00:00 -2,2 -2,5 5 3 - - ENE
15.11.2019 13:00:00 -2,3 -2,5 8 4 - - NE
15.11.2019 12:00:00 -2,5 -2,7 8 4 - - S
15.11.2019 11:00:00 -2,6 -2,9 8 4 - - ENE
15.11.2019 10:00:00 -2,4 -2,6 9 5 - - NNE
15.11.2019 09:00:00 -2,7 -3,0 11 6 - - NNE
15.11.2019 08:00:00 -3,1 -3,4 11 6 - - N
15.11.2019 07:00:00 -3,2 -3,5 11 6 - - NNE
15.11.2019 06:00:00 -3,5 -3,8 15 8 - - N
15.11.2019 05:00:00 -2,8 -3,1 15 8 - - NNE
15.11.2019 04:00:00 -3,5 -3,9 13 7 - - N
15.11.2019 03:00:00 -3,7 -4,0 15 8 - - NNE
15.11.2019 02:00:00 -3,8 -4,1 13 7 - - N
15.11.2019 01:00:00 -3,6 -3,9 15 8 - - N
15.11.2019 00:00:00 -3,9 -4,2 13 7 - - N
14.11.2019 23:00:00 -3,7 -4,0 11 6 - - N
14.11.2019 22:00:00 -4,0 -4,4 24 13 - - N
14.11.2019 21:00:00 -4,3 -4,6 21 11 - - N
14.11.2019 20:00:00 -4,2 -4,6 13 7 - - N
14.11.2019 19:00:00 -4,1 -4,4 15 8 - - N
14.11.2019 18:00:00 -4,1 -4,4 15 8 - - N
14.11.2019 17:00:00 -3,8 -4,1 18 10 - - N
14.11.2019 16:00:00 -4,2 -4,6 11 6 - - N
14.11.2019 15:00:00 -4,1 -4,6 15 8 - - N
14.11.2019 14:00:00 -4,1 -4,7 15 8 - - N
14.11.2019 13:00:00 -4,2 -4,7 13 7 - - N
14.11.2019 12:00:00 -4,3 -4,7 15 8 - - N
14.11.2019 11:00:00 -4,5 -4,9 16 9 - - N
14.11.2019 10:00:00 -4,6 -5,1 16 9 - - NNE
14.11.2019 09:00:00 -4,9 -5,4 15 8 - - N
14.11.2019 08:00:00 -5,4 -5,8 15 8 - - N
14.11.2019 07:00:00 -5,3 -5,8 16 9 - - N
14.11.2019 06:00:00 -5,3 -5,7 21 11 - - N
14.11.2019 05:00:00 -5,3 -5,8 15 8 - - NE
14.11.2019 04:00:00 -5,8 -6,3 18 10 - - NE
14.11.2019 03:00:00 -5,5 -6,1 21 11 - - NNE
14.11.2019 02:00:00 -5,4 -5,8 24 13 - - NNE
14.11.2019 01:00:00 -6,1 -6,7 16 9 - - NE
14.11.2019 00:00:00 -6,2 -6,7 9 5 - - NNE
13.11.2019 23:00:00 -6,9 -7,8 16 9 - - ENE
13.11.2019 22:00:00 -6,3 -7,0 13 7 - - ENE
13.11.2019 21:00:00 -6,5 -7,3 9 5 - - ENE
13.11.2019 20:00:00 -6,3 -7,1 11 6 - - E
13.11.2019 19:00:00 -6,7 -8,6 5 3 - - ENE
13.11.2019 18:00:00 -6,0 -7,7 22 12 - - ENE

tt = temperature
td = dewpoint
ff = wind speed
fx = gusts
dd = wind direction

Next stations